sensor_id;sensor_type;location;lat;lon;timestamp;P1;durP1;ratioP1;P2;durP2;ratioP2
12840;SDS011;6487;48.626;12.486;2023-02-28T00:01:30;3.67;;;3.00;;
12840;SDS011;6487;48.626;12.486;2023-02-28T00:03:59;4.67;;;2.90;;
12840;SDS011;6487;48.626;12.486;2023-02-28T00:06:27;4.63;;;3.00;;
12840;SDS011;6487;48.626;12.486;2023-02-28T00:08:57;4.53;;;2.73;;
12840;SDS011;6487;48.626;12.486;2023-02-28T00:11:25;3.73;;;2.70;;
12840;SDS011;6487;48.626;12.486;2023-02-28T00:13:54;4.50;;;2.97;;
12840;SDS011;6487;48.626;12.486;2023-02-28T00:16:22;6.47;;;3.23;;
12840;SDS011;6487;48.626;12.486;2023-02-28T00:18:51;5.27;;;3.27;;
12840;SDS011;6487;48.626;12.486;2023-02-28T00:21:19;4.43;;;3.20;;
12840;SDS011;6487;48.626;12.486;2023-02-28T00:23:48;5.00;;;2.90;;
12840;SDS011;6487;48.626;12.486;2023-02-28T00:26:18;3.77;;;2.73;;
12840;SDS011;6487;48.626;12.486;2023-02-28T00:28:47;4.07;;;3.03;;
12840;SDS011;6487;48.626;12.486;2023-02-28T00:31:15;4.57;;;2.80;;
12840;SDS011;6487;48.626;12.486;2023-02-28T00:33:44;4.03;;;3.13;;
12840;SDS011;6487;48.626;12.486;2023-02-28T00:36:12;3.57;;;2.73;;
12840;SDS011;6487;48.626;12.486;2023-02-28T00:38:40;4.67;;;3.27;;
12840;SDS011;6487;48.626;12.486;2023-02-28T00:41:09;6.13;;;3.63;;
12840;SDS011;6487;48.626;12.486;2023-02-28T00:43:39;5.40;;;3.10;;
12840;SDS011;6487;48.626;12.486;2023-02-28T00:46:07;4.90;;;3.13;;
12840;SDS011;6487;48.626;12.486;2023-02-28T00:48:36;4.97;;;3.30;;
12840;SDS011;6487;48.626;12.486;2023-02-28T00:51:05;3.73;;;2.90;;
12840;SDS011;6487;48.626;12.486;2023-02-28T00:53:33;4.93;;;2.97;;
12840;SDS011;6487;48.626;12.486;2023-02-28T00:56:02;6.00;;;3.10;;
12840;SDS011;6487;48.626;12.486;2023-02-28T00:58:31;5.47;;;3.33;;
12840;SDS011;6487;48.626;12.486;2023-02-28T01:01:00;4.70;;;2.90;;
12840;SDS011;6487;48.626;12.486;2023-02-28T01:03:29;5.10;;;3.50;;
12840;SDS011;6487;48.626;12.486;2023-02-28T01:05:57;4.57;;;3.37;;
12840;SDS011;6487;48.626;12.486;2023-02-28T01:08:26;4.30;;;2.93;;
12840;SDS011;6487;48.626;12.486;2023-02-28T01:10:54;5.07;;;3.13;;
12840;SDS011;6487;48.626;12.486;2023-02-28T01:13:22;4.23;;;3.10;;
12840;SDS011;6487;48.626;12.486;2023-02-28T01:15:52;5.00;;;2.83;;
12840;SDS011;6487;48.626;12.486;2023-02-28T01:18:24;4.30;;;2.97;;
12840;SDS011;6487;48.626;12.486;2023-02-28T01:20:53;3.70;;;2.87;;
12840;SDS011;6487;48.626;12.486;2023-02-28T01:23:21;3.17;;;2.87;;
12840;SDS011;6487;48.626;12.486;2023-02-28T01:25:51;5.93;;;3.00;;
12840;SDS011;6487;48.626;12.486;2023-02-28T01:28:19;3.47;;;2.77;;
12840;SDS011;6487;48.626;12.486;2023-02-28T01:30:48;5.40;;;3.60;;
12840;SDS011;6487;48.626;12.486;2023-02-28T01:33:18;3.63;;;2.97;;
12840;SDS011;6487;48.626;12.486;2023-02-28T01:35:47;5.33;;;3.60;;
12840;SDS011;6487;48.626;12.486;2023-02-28T01:38:16;5.07;;;3.87;;
12840;SDS011;6487;48.626;12.486;2023-02-28T01:40:49;5.47;;;3.40;;
12840;SDS011;6487;48.626;12.486;2023-02-28T01:43:20;6.20;;;3.47;;
12840;SDS011;6487;48.626;12.486;2023-02-28T01:45:51;3.80;;;3.13;;
12840;SDS011;6487;48.626;12.486;2023-02-28T01:48:21;5.80;;;3.47;;
12840;SDS011;6487;48.626;12.486;2023-02-28T01:50:55;7.33;;;4.13;;
12840;SDS011;6487;48.626;12.486;2023-02-28T01:53:30;4.00;;;3.57;;
12840;SDS011;6487;48.626;12.486;2023-02-28T01:56:02;6.97;;;4.03;;
12840;SDS011;6487;48.626;12.486;2023-02-28T01:58:33;4.13;;;3.23;;
12840;SDS011;6487;48.626;12.486;2023-02-28T02:01:03;4.50;;;3.43;;
12840;SDS011;6487;48.626;12.486;2023-02-28T02:03:32;5.17;;;3.50;;
12840;SDS011;6487;48.626;12.486;2023-02-28T02:06:04;5.83;;;4.00;;
12840;SDS011;6487;48.626;12.486;2023-02-28T02:08:32;4.63;;;3.87;;
12840;SDS011;6487;48.626;12.486;2023-02-28T02:11:01;5.37;;;4.00;;
12840;SDS011;6487;48.626;12.486;2023-02-28T02:13:36;5.47;;;4.00;;
12840;SDS011;6487;48.626;12.486;2023-02-28T02:16:29;4.73;;;3.70;;
12840;SDS011;6487;48.626;12.486;2023-02-28T02:19:14;4.80;;;3.73;;
12840;SDS011;6487;48.626;12.486;2023-02-28T02:22:20;5.50;;;4.00;;
12840;SDS011;6487;48.626;12.486;2023-02-28T02:25:17;5.47;;;3.70;;
12840;SDS011;6487;48.626;12.486;2023-02-28T02:27:59;4.67;;;3.93;;
12840;SDS011;6487;48.626;12.486;2023-02-28T02:34:22;5.37;;;4.27;;
12840;SDS011;6487;48.626;12.486;2023-02-28T02:37:15;5.27;;;4.13;;
12840;SDS011;6487;48.626;12.486;2023-02-28T02:39:57;5.17;;;4.33;;
12840;SDS011;6487;48.626;12.486;2023-02-28T02:42:33;5.43;;;4.27;;
12840;SDS011;6487;48.626;12.486;2023-02-28T02:45:09;6.87;;;4.40;;
12840;SDS011;6487;48.626;12.486;2023-02-28T02:47:43;5.83;;;3.93;;
12840;SDS011;6487;48.626;12.486;2023-02-28T02:50:15;5.63;;;3.63;;
12840;SDS011;6487;48.626;12.486;2023-02-28T02:52:48;8.43;;;4.03;;
12840;SDS011;6487;48.626;12.486;2023-02-28T02:55:23;6.07;;;4.97;;
12840;SDS011;6487;48.626;12.486;2023-02-28T02:57:53;11.47;;;4.40;;
12840;SDS011;6487;48.626;12.486;2023-02-28T03:00:26;6.87;;;3.87;;
12840;SDS011;6487;48.626;12.486;2023-02-28T03:03:02;5.57;;;4.40;;
12840;SDS011;6487;48.626;12.486;2023-02-28T03:05:33;6.73;;;3.87;;
12840;SDS011;6487;48.626;12.486;2023-02-28T03:08:09;6.07;;;4.33;;
12840;SDS011;6487;48.626;12.486;2023-02-28T03:10:38;6.20;;;4.07;;
12840;SDS011;6487;48.626;12.486;2023-02-28T03:13:16;6.90;;;4.80;;
12840;SDS011;6487;48.626;12.486;2023-02-28T03:16:09;7.17;;;5.30;;
12840;SDS011;6487;48.626;12.486;2023-02-28T03:19:06;5.97;;;4.27;;
12840;SDS011;6487;48.626;12.486;2023-02-28T03:22:11;6.27;;;4.50;;
12840;SDS011;6487;48.626;12.486;2023-02-28T03:24:52;7.83;;;5.20;;
12840;SDS011;6487;48.626;12.486;2023-02-28T03:27:26;7.40;;;4.97;;
12840;SDS011;6487;48.626;12.486;2023-02-28T03:29:58;6.87;;;4.80;;
12840;SDS011;6487;48.626;12.486;2023-02-28T03:32:33;6.90;;;4.40;;
12840;SDS011;6487;48.626;12.486;2023-02-28T03:35:06;5.10;;;4.60;;
12840;SDS011;6487;48.626;12.486;2023-02-28T03:37:41;5.40;;;4.87;;
12840;SDS011;6487;48.626;12.486;2023-02-28T03:40:13;5.80;;;5.17;;
12840;SDS011;6487;48.626;12.486;2023-02-28T03:42:45;6.77;;;5.33;;
12840;SDS011;6487;48.626;12.486;2023-02-28T03:45:18;6.80;;;5.00;;
12840;SDS011;6487;48.626;12.486;2023-02-28T03:47:51;7.03;;;5.23;;
12840;SDS011;6487;48.626;12.486;2023-02-28T03:50:22;7.23;;;5.03;;
12840;SDS011;6487;48.626;12.486;2023-02-28T03:52:58;6.13;;;5.07;;
12840;SDS011;6487;48.626;12.486;2023-02-28T03:55:32;6.80;;;5.00;;
12840;SDS011;6487;48.626;12.486;2023-02-28T03:58:07;6.90;;;5.07;;
12840;SDS011;6487;48.626;12.486;2023-02-28T04:00:43;6.73;;;5.33;;
12840;SDS011;6487;48.626;12.486;2023-02-28T04:03:16;7.97;;;4.83;;
12840;SDS011;6487;48.626;12.486;2023-02-28T04:05:46;6.80;;;4.67;;
12840;SDS011;6487;48.626;12.486;2023-02-28T04:08:20;6.73;;;5.50;;
12840;SDS011;6487;48.626;12.486;2023-02-28T04:10:50;6.93;;;5.77;;
12840;SDS011;6487;48.626;12.486;2023-02-28T04:13:24;9.20;;;5.27;;
12840;SDS011;6487;48.626;12.486;2023-02-28T04:15:52;7.60;;;4.83;;
12840;SDS011;6487;48.626;12.486;2023-02-28T04:18:20;7.03;;;4.90;;
12840;SDS011;6487;48.626;12.486;2023-02-28T04:20:48;7.23;;;5.10;;
12840;SDS011;6487;48.626;12.486;2023-02-28T04:23:17;6.10;;;4.97;;
12840;SDS011;6487;48.626;12.486;2023-02-28T04:25:46;7.17;;;5.60;;
12840;SDS011;6487;48.626;12.486;2023-02-28T04:28:17;8.37;;;5.33;;
12840;SDS011;6487;48.626;12.486;2023-02-28T04:30:45;6.73;;;5.37;;
12840;SDS011;6487;48.626;12.486;2023-02-28T04:33:13;7.40;;;5.60;;
12840;SDS011;6487;48.626;12.486;2023-02-28T04:35:42;10.87;;;6.30;;
12840;SDS011;6487;48.626;12.486;2023-02-28T04:38:10;7.30;;;5.83;;
12840;SDS011;6487;48.626;12.486;2023-02-28T04:40:38;7.53;;;5.50;;
12840;SDS011;6487;48.626;12.486;2023-02-28T04:43:08;8.03;;;5.50;;
12840;SDS011;6487;48.626;12.486;2023-02-28T04:45:36;7.87;;;5.73;;
12840;SDS011;6487;48.626;12.486;2023-02-28T04:48:05;8.17;;;5.90;;
12840;SDS011;6487;48.626;12.486;2023-02-28T04:50:33;7.17;;;6.03;;
12840;SDS011;6487;48.626;12.486;2023-02-28T04:53:01;8.87;;;5.83;;
12840;SDS011;6487;48.626;12.486;2023-02-28T04:55:29;6.40;;;5.03;;
12840;SDS011;6487;48.626;12.486;2023-02-28T04:57:57;9.53;;;6.37;;
12840;SDS011;6487;48.626;12.486;2023-02-28T05:00:27;7.67;;;5.70;;
12840;SDS011;6487;48.626;12.486;2023-02-28T05:02:55;8.03;;;5.67;;
12840;SDS011;6487;48.626;12.486;2023-02-28T05:05:24;7.50;;;5.63;;
12840;SDS011;6487;48.626;12.486;2023-02-28T05:07:52;9.23;;;6.20;;
12840;SDS011;6487;48.626;12.486;2023-02-28T05:10:21;7.20;;;5.77;;
12840;SDS011;6487;48.626;12.486;2023-02-28T05:12:50;9.30;;;6.63;;
12840;SDS011;6487;48.626;12.486;2023-02-28T05:15:18;8.43;;;6.73;;
12840;SDS011;6487;48.626;12.486;2023-02-28T05:17:48;7.83;;;6.83;;
12840;SDS011;6487;48.626;12.486;2023-02-28T05:20:16;7.70;;;6.50;;
12840;SDS011;6487;48.626;12.486;2023-02-28T05:22:44;8.57;;;6.73;;
12840;SDS011;6487;48.626;12.486;2023-02-28T05:25:13;9.17;;;6.53;;
12840;SDS011;6487;48.626;12.486;2023-02-28T05:27:47;9.53;;;6.40;;
12840;SDS011;6487;48.626;12.486;2023-02-28T05:30:16;7.73;;;5.90;;
12840;SDS011;6487;48.626;12.486;2023-02-28T05:32:48;7.70;;;6.50;;
12840;SDS011;6487;48.626;12.486;2023-02-28T05:35:19;6.93;;;5.87;;
12840;SDS011;6487;48.626;12.486;2023-02-28T05:37:47;9.27;;;6.60;;
12840;SDS011;6487;48.626;12.486;2023-02-28T05:40:15;8.20;;;6.50;;
12840;SDS011;6487;48.626;12.486;2023-02-28T05:42:46;10.03;;;6.60;;
12840;SDS011;6487;48.626;12.486;2023-02-28T05:45:15;9.13;;;6.37;;
12840;SDS011;6487;48.626;12.486;2023-02-28T05:47:43;10.13;;;6.57;;
12840;SDS011;6487;48.626;12.486;2023-02-28T05:50:13;9.27;;;6.30;;
12840;SDS011;6487;48.626;12.486;2023-02-28T05:52:41;8.63;;;6.53;;
12840;SDS011;6487;48.626;12.486;2023-02-28T05:55:10;7.63;;;6.00;;
12840;SDS011;6487;48.626;12.486;2023-02-28T05:57:38;11.27;;;6.83;;
12840;SDS011;6487;48.626;12.486;2023-02-28T06:00:07;8.40;;;6.50;;
12840;SDS011;6487;48.626;12.486;2023-02-28T06:02:38;8.30;;;6.80;;
12840;SDS011;6487;48.626;12.486;2023-02-28T06:05:08;9.17;;;6.70;;
12840;SDS011;6487;48.626;12.486;2023-02-28T06:07:43;8.53;;;6.37;;
12840;SDS011;6487;48.626;12.486;2023-02-28T06:10:12;7.00;;;6.00;;
12840;SDS011;6487;48.626;12.486;2023-02-28T06:12:40;8.30;;;6.07;;
12840;SDS011;6487;48.626;12.486;2023-02-28T06:15:10;8.83;;;6.80;;
12840;SDS011;6487;48.626;12.486;2023-02-28T06:17:40;7.93;;;5.97;;
12840;SDS011;6487;48.626;12.486;2023-02-28T06:20:09;8.70;;;6.17;;
12840;SDS011;6487;48.626;12.486;2023-02-28T06:22:41;9.13;;;7.20;;
12840;SDS011;6487;48.626;12.486;2023-02-28T06:25:09;8.73;;;6.67;;
12840;SDS011;6487;48.626;12.486;2023-02-28T06:27:38;9.57;;;6.90;;
12840;SDS011;6487;48.626;12.486;2023-02-28T06:30:07;9.50;;;7.23;;
12840;SDS011;6487;48.626;12.486;2023-02-28T06:32:37;13.80;;;9.17;;
12840;SDS011;6487;48.626;12.486;2023-02-28T06:35:06;11.03;;;8.00;;
12840;SDS011;6487;48.626;12.486;2023-02-28T06:37:35;10.10;;;7.90;;
12840;SDS011;6487;48.626;12.486;2023-02-28T06:40:09;10.13;;;7.57;;
12840;SDS011;6487;48.626;12.486;2023-02-28T06:42:39;8.80;;;7.83;;
12840;SDS011;6487;48.626;12.486;2023-02-28T06:45:08;13.53;;;8.20;;
12840;SDS011;6487;48.626;12.486;2023-02-28T06:47:37;10.27;;;7.77;;
12840;SDS011;6487;48.626;12.486;2023-02-28T06:50:08;10.17;;;7.90;;
12840;SDS011;6487;48.626;12.486;2023-02-28T06:52:38;9.33;;;7.57;;
12840;SDS011;6487;48.626;12.486;2023-02-28T06:55:08;10.03;;;7.73;;
12840;SDS011;6487;48.626;12.486;2023-02-28T06:57:37;10.37;;;7.70;;
12840;SDS011;6487;48.626;12.486;2023-02-28T07:00:06;12.43;;;8.13;;
12840;SDS011;6487;48.626;12.486;2023-02-28T07:02:37;9.93;;;7.53;;
12840;SDS011;6487;48.626;12.486;2023-02-28T07:05:05;12.17;;;8.10;;
12840;SDS011;6487;48.626;12.486;2023-02-28T07:07:34;9.77;;;7.87;;
12840;SDS011;6487;48.626;12.486;2023-02-28T07:10:07;10.13;;;8.20;;
12840;SDS011;6487;48.626;12.486;2023-02-28T07:12:39;10.00;;;7.70;;
12840;SDS011;6487;48.626;12.486;2023-02-28T07:15:08;11.43;;;7.77;;
12840;SDS011;6487;48.626;12.486;2023-02-28T07:17:37;11.17;;;8.40;;
12840;SDS011;6487;48.626;12.486;2023-02-28T07:20:06;9.50;;;7.37;;
12840;SDS011;6487;48.626;12.486;2023-02-28T07:22:35;10.70;;;7.67;;
12840;SDS011;6487;48.626;12.486;2023-02-28T07:25:05;11.63;;;8.13;;
12840;SDS011;6487;48.626;12.486;2023-02-28T07:27:35;11.17;;;7.57;;
12840;SDS011;6487;48.626;12.486;2023-02-28T07:30:04;12.37;;;8.20;;
12840;SDS011;6487;48.626;12.486;2023-02-28T07:32:33;14.37;;;8.53;;
12840;SDS011;6487;48.626;12.486;2023-02-28T07:35:04;11.83;;;8.20;;
12840;SDS011;6487;48.626;12.486;2023-02-28T07:37:33;8.77;;;7.43;;
12840;SDS011;6487;48.626;12.486;2023-02-28T07:40:02;14.37;;;7.83;;
12840;SDS011;6487;48.626;12.486;2023-02-28T07:42:35;14.07;;;7.60;;
12840;SDS011;6487;48.626;12.486;2023-02-28T07:45:05;9.20;;;6.80;;
12840;SDS011;6487;48.626;12.486;2023-02-28T07:47:34;10.23;;;6.97;;
12840;SDS011;6487;48.626;12.486;2023-02-28T07:50:03;16.03;;;7.53;;
12840;SDS011;6487;48.626;12.486;2023-02-28T07:52:32;12.33;;;7.60;;
12840;SDS011;6487;48.626;12.486;2023-02-28T07:55:00;10.00;;;7.10;;
12840;SDS011;6487;48.626;12.486;2023-02-28T07:57:29;10.20;;;7.10;;
12840;SDS011;6487;48.626;12.486;2023-02-28T08:00:01;11.20;;;7.33;;
12840;SDS011;6487;48.626;12.486;2023-02-28T08:02:31;8.53;;;7.23;;
12840;SDS011;6487;48.626;12.486;2023-02-28T08:04:59;10.37;;;7.43;;
12840;SDS011;6487;48.626;12.486;2023-02-28T08:07:28;9.47;;;6.97;;
12840;SDS011;6487;48.626;12.486;2023-02-28T08:09:56;9.50;;;7.17;;
12840;SDS011;6487;48.626;12.486;2023-02-28T08:12:24;7.57;;;6.60;;
12840;SDS011;6487;48.626;12.486;2023-02-28T08:14:53;8.27;;;7.37;;
12840;SDS011;6487;48.626;12.486;2023-02-28T08:17:22;10.13;;;7.77;;
12840;SDS011;6487;48.626;12.486;2023-02-28T08:19:51;9.63;;;7.07;;
12840;SDS011;6487;48.626;12.486;2023-02-28T08:22:19;10.40;;;7.33;;
12840;SDS011;6487;48.626;12.486;2023-02-28T08:24:47;10.10;;;7.97;;
12840;SDS011;6487;48.626;12.486;2023-02-28T08:27:15;11.13;;;8.80;;
12840;SDS011;6487;48.626;12.486;2023-02-28T08:29:44;9.50;;;7.63;;
12840;SDS011;6487;48.626;12.486;2023-02-28T08:32:12;8.90;;;6.83;;
12840;SDS011;6487;48.626;12.486;2023-02-28T08:34:56;11.90;;;8.40;;
12840;SDS011;6487;48.626;12.486;2023-02-28T08:37:24;11.33;;;9.43;;
12840;SDS011;6487;48.626;12.486;2023-02-28T08:39:53;11.10;;;7.77;;
12840;SDS011;6487;48.626;12.486;2023-02-28T08:42:22;8.50;;;7.00;;
12840;SDS011;6487;48.626;12.486;2023-02-28T08:44:50;10.10;;;7.47;;
12840;SDS011;6487;48.626;12.486;2023-02-28T08:47:19;9.90;;;8.03;;
12840;SDS011;6487;48.626;12.486;2023-02-28T08:49:47;9.63;;;8.03;;
12840;SDS011;6487;48.626;12.486;2023-02-28T08:52:17;10.13;;;8.03;;
12840;SDS011;6487;48.626;12.486;2023-02-28T08:54:45;10.87;;;8.27;;
12840;SDS011;6487;48.626;12.486;2023-02-28T08:57:14;12.80;;;9.03;;
12840;SDS011;6487;48.626;12.486;2023-02-28T08:59:42;9.80;;;7.77;;
12840;SDS011;6487;48.626;12.486;2023-02-28T09:02:11;9.67;;;7.57;;
12840;SDS011;6487;48.626;12.486;2023-02-28T09:04:41;9.17;;;7.20;;
12840;SDS011;6487;48.626;12.486;2023-02-28T09:07:11;13.53;;;7.73;;
12840;SDS011;6487;48.626;12.486;2023-02-28T09:09:41;9.43;;;8.00;;
12840;SDS011;6487;48.626;12.486;2023-02-28T09:12:20;10.30;;;8.33;;
12840;SDS011;6487;48.626;12.486;2023-02-28T09:14:48;10.40;;;7.60;;
12840;SDS011;6487;48.626;12.486;2023-02-28T09:17:17;10.90;;;7.83;;
12840;SDS011;6487;48.626;12.486;2023-02-28T09:19:47;9.47;;;8.47;;
12840;SDS011;6487;48.626;12.486;2023-02-28T09:22:16;9.83;;;7.57;;
12840;SDS011;6487;48.626;12.486;2023-02-28T09:24:45;10.60;;;7.93;;
12840;SDS011;6487;48.626;12.486;2023-02-28T09:27:14;9.33;;;7.53;;
12840;SDS011;6487;48.626;12.486;2023-02-28T09:29:42;12.13;;;7.37;;
12840;SDS011;6487;48.626;12.486;2023-02-28T09:32:10;8.53;;;7.47;;
12840;SDS011;6487;48.626;12.486;2023-02-28T09:34:39;8.93;;;7.90;;
12840;SDS011;6487;48.626;12.486;2023-02-28T09:37:07;11.03;;;8.27;;
12840;SDS011;6487;48.626;12.486;2023-02-28T09:39:35;9.63;;;8.43;;
12840;SDS011;6487;48.626;12.486;2023-02-28T09:42:05;12.30;;;8.37;;
12840;SDS011;6487;48.626;12.486;2023-02-28T09:44:45;9.03;;;7.43;;
12840;SDS011;6487;48.626;12.486;2023-02-28T09:47:17;8.53;;;7.70;;
12840;SDS011;6487;48.626;12.486;2023-02-28T09:49:55;7.93;;;7.00;;
12840;SDS011;6487;48.626;12.486;2023-02-28T09:52:28;7.87;;;7.07;;
12840;SDS011;6487;48.626;12.486;2023-02-28T09:55:00;10.23;;;8.10;;
12840;SDS011;6487;48.626;12.486;2023-02-28T09:57:47;10.37;;;7.60;;
12840;SDS011;6487;48.626;12.486;2023-02-28T10:00:19;9.40;;;7.57;;
12840;SDS011;6487;48.626;12.486;2023-02-28T10:05:54;9.27;;;7.47;;
12840;SDS011;6487;48.626;12.486;2023-02-28T10:08:32;8.73;;;7.30;;
12840;SDS011;6487;48.626;12.486;2023-02-28T10:11:07;8.30;;;7.50;;
12840;SDS011;6487;48.626;12.486;2023-02-28T10:13:42;9.47;;;7.43;;
12840;SDS011;6487;48.626;12.486;2023-02-28T10:16:20;9.60;;;7.63;;
12840;SDS011;6487;48.626;12.486;2023-02-28T10:18:54;9.83;;;8.33;;
12840;SDS011;6487;48.626;12.486;2023-02-28T10:21:28;10.07;;;7.97;;
12840;SDS011;6487;48.626;12.486;2023-02-28T10:24:03;9.93;;;7.77;;
12840;SDS011;6487;48.626;12.486;2023-02-28T10:26:41;9.47;;;7.40;;
12840;SDS011;6487;48.626;12.486;2023-02-28T10:29:14;9.80;;;8.67;;
12840;SDS011;6487;48.626;12.486;2023-02-28T10:31:42;9.97;;;8.43;;
12840;SDS011;6487;48.626;12.486;2023-02-28T10:34:12;10.07;;;8.13;;
12840;SDS011;6487;48.626;12.486;2023-02-28T10:36:40;7.90;;;7.20;;
12840;SDS011;6487;48.626;12.486;2023-02-28T10:42:21;9.00;;;7.90;;
12840;SDS011;6487;48.626;12.486;2023-02-28T10:45:09;9.37;;;7.33;;
12840;SDS011;6487;48.626;12.486;2023-02-28T10:47:41;8.80;;;7.90;;
12840;SDS011;6487;48.626;12.486;2023-02-28T10:50:29;9.23;;;7.77;;
12840;SDS011;6487;48.626;12.486;2023-02-28T10:53:10;9.23;;;6.80;;
12840;SDS011;6487;48.626;12.486;2023-02-28T10:56:14;7.23;;;6.53;;
12840;SDS011;6487;48.626;12.486;2023-02-28T10:58:47;7.53;;;6.83;;
12840;SDS011;6487;48.626;12.486;2023-02-28T11:01:21;9.27;;;7.10;;
12840;SDS011;6487;48.626;12.486;2023-02-28T11:03:52;8.70;;;7.80;;
12840;SDS011;6487;48.626;12.486;2023-02-28T11:06:21;8.07;;;6.97;;
12840;SDS011;6487;48.626;12.486;2023-02-28T11:08:53;8.70;;;7.80;;
12840;SDS011;6487;48.626;12.486;2023-02-28T11:11:24;10.00;;;8.23;;
12840;SDS011;6487;48.626;12.486;2023-02-28T11:13:55;8.20;;;7.23;;
12840;SDS011;6487;48.626;12.486;2023-02-28T11:16:33;10.57;;;8.63;;
12840;SDS011;6487;48.626;12.486;2023-02-28T11:19:05;8.70;;;7.80;;
12840;SDS011;6487;48.626;12.486;2023-02-28T11:21:47;8.67;;;7.57;;
12840;SDS011;6487;48.626;12.486;2023-02-28T11:24:22;9.40;;;7.90;;
12840;SDS011;6487;48.626;12.486;2023-02-28T11:26:53;8.97;;;7.77;;
12840;SDS011;6487;48.626;12.486;2023-02-28T11:29:23;10.90;;;8.87;;
12840;SDS011;6487;48.626;12.486;2023-02-28T11:32:12;9.47;;;8.50;;
12840;SDS011;6487;48.626;12.486;2023-02-28T11:34:46;10.77;;;8.10;;
12840;SDS011;6487;48.626;12.486;2023-02-28T11:37:28;10.13;;;9.03;;
12840;SDS011;6487;48.626;12.486;2023-02-28T11:39:58;9.20;;;8.20;;
12840;SDS011;6487;48.626;12.486;2023-02-28T11:42:32;8.53;;;7.57;;
12840;SDS011;6487;48.626;12.486;2023-02-28T11:45:18;11.10;;;8.47;;
12840;SDS011;6487;48.626;12.486;2023-02-28T11:48:07;8.87;;;7.97;;
12840;SDS011;6487;48.626;12.486;2023-02-28T11:50:46;9.50;;;8.37;;
12840;SDS011;6487;48.626;12.486;2023-02-28T11:53:34;10.73;;;9.00;;
12840;SDS011;6487;48.626;12.486;2023-02-28T11:56:16;9.50;;;8.50;;
12840;SDS011;6487;48.626;12.486;2023-02-28T11:58:54;9.93;;;8.57;;
12840;SDS011;6487;48.626;12.486;2023-02-28T12:01:38;9.00;;;8.00;;
12840;SDS011;6487;48.626;12.486;2023-02-28T12:04:30;10.30;;;7.83;;
12840;SDS011;6487;48.626;12.486;2023-02-28T12:07:11;8.90;;;8.00;;
12840;SDS011;6487;48.626;12.486;2023-02-28T12:09:49;14.63;;;10.50;;
12840;SDS011;6487;48.626;12.486;2023-02-28T12:12:33;10.20;;;9.10;;
12840;SDS011;6487;48.626;12.486;2023-02-28T12:15:22;10.33;;;9.17;;
12840;SDS011;6487;48.626;12.486;2023-02-28T12:21:18;8.90;;;7.97;;
12840;SDS011;6487;48.626;12.486;2023-02-28T12:24:05;9.33;;;8.30;;
12840;SDS011;6487;48.626;12.486;2023-02-28T12:26:53;10.30;;;9.03;;
12840;SDS011;6487;48.626;12.486;2023-02-28T12:29:24;9.97;;;8.17;;
12840;SDS011;6487;48.626;12.486;2023-02-28T12:32:06;9.37;;;8.40;;
12840;SDS011;6487;48.626;12.486;2023-02-28T12:34:42;10.87;;;9.27;;
12840;SDS011;6487;48.626;12.486;2023-02-28T12:37:19;9.90;;;8.90;;
12840;SDS011;6487;48.626;12.486;2023-02-28T12:39:56;9.17;;;7.70;;
12840;SDS011;6487;48.626;12.486;2023-02-28T12:42:33;9.80;;;8.77;;
12840;SDS011;6487;48.626;12.486;2023-02-28T12:45:09;9.00;;;8.10;;
12840;SDS011;6487;48.626;12.486;2023-02-28T12:47:42;9.90;;;8.53;;
12840;SDS011;6487;48.626;12.486;2023-02-28T12:50:12;9.40;;;7.97;;
12840;SDS011;6487;48.626;12.486;2023-02-28T12:52:46;10.30;;;8.60;;
12840;SDS011;6487;48.626;12.486;2023-02-28T12:55:23;10.70;;;9.27;;
12840;SDS011;6487;48.626;12.486;2023-02-28T12:58:01;11.40;;;8.93;;
12840;SDS011;6487;48.626;12.486;2023-02-28T13:00:44;9.77;;;8.87;;
12840;SDS011;6487;48.626;12.486;2023-02-28T13:03:46;9.70;;;8.70;;
12840;SDS011;6487;48.626;12.486;2023-02-28T13:06:42;10.80;;;9.27;;
12840;SDS011;6487;48.626;12.486;2023-02-28T13:09:34;10.13;;;9.13;;
12840;SDS011;6487;48.626;12.486;2023-02-28T13:12:04;10.33;;;9.33;;
12840;SDS011;6487;48.626;12.486;2023-02-28T13:14:41;10.33;;;9.03;;
12840;SDS011;6487;48.626;12.486;2023-02-28T13:17:10;10.40;;;9.40;;
12840;SDS011;6487;48.626;12.486;2023-02-28T13:19:43;9.70;;;8.80;;
12840;SDS011;6487;48.626;12.486;2023-02-28T13:22:17;10.40;;;9.30;;
12840;SDS011;6487;48.626;12.486;2023-02-28T13:24:50;10.40;;;9.20;;
12840;SDS011;6487;48.626;12.486;2023-02-28T13:27:23;10.43;;;9.20;;
12840;SDS011;6487;48.626;12.486;2023-02-28T13:30:00;10.27;;;9.10;;
12840;SDS011;6487;48.626;12.486;2023-02-28T13:33:19;9.83;;;8.77;;
12840;SDS011;6487;48.626;12.486;2023-02-28T13:36:06;13.73;;;9.47;;
12840;SDS011;6487;48.626;12.486;2023-02-28T13:38:39;12.30;;;9.90;;
12840;SDS011;6487;48.626;12.486;2023-02-28T13:44:15;10.50;;;9.10;;
12840;SDS011;6487;48.626;12.486;2023-02-28T13:50:15;10.63;;;9.63;;
12840;SDS011;6487;48.626;12.486;2023-02-28T13:56:27;12.00;;;10.10;;
12840;SDS011;6487;48.626;12.486;2023-02-28T13:59:12;10.10;;;9.00;;
12840;SDS011;6487;48.626;12.486;2023-02-28T14:01:53;10.63;;;9.37;;
12840;SDS011;6487;48.626;12.486;2023-02-28T14:05:01;10.17;;;9.13;;
12840;SDS011;6487;48.626;12.486;2023-02-28T14:07:33;9.83;;;8.93;;
12840;SDS011;6487;48.626;12.486;2023-02-28T14:10:15;13.03;;;9.93;;
12840;SDS011;6487;48.626;12.486;2023-02-28T14:13:01;12.67;;;9.90;;
12840;SDS011;6487;48.626;12.486;2023-02-28T14:15:48;11.77;;;10.40;;
12840;SDS011;6487;48.626;12.486;2023-02-28T14:18:24;11.40;;;10.30;;
12840;SDS011;6487;48.626;12.486;2023-02-28T14:20:58;10.23;;;9.23;;
12840;SDS011;6487;48.626;12.486;2023-02-28T14:23:53;10.70;;;9.53;;
12840;SDS011;6487;48.626;12.486;2023-02-28T14:27:02;10.70;;;9.60;;
12840;SDS011;6487;48.626;12.486;2023-02-28T14:32:43;12.47;;;9.63;;
12840;SDS011;6487;48.626;12.486;2023-02-28T14:35:29;12.37;;;9.73;;
12840;SDS011;6487;48.626;12.486;2023-02-28T14:38:14;12.10;;;10.83;;
12840;SDS011;6487;48.626;12.486;2023-02-28T14:40:47;12.00;;;10.50;;
12840;SDS011;6487;48.626;12.486;2023-02-28T14:43:20;15.37;;;12.60;;
12840;SDS011;6487;48.626;12.486;2023-02-28T14:45:51;13.00;;;11.57;;
12840;SDS011;6487;48.626;12.486;2023-02-28T14:48:23;13.60;;;10.53;;
12840;SDS011;6487;48.626;12.486;2023-02-28T14:50:54;18.00;;;11.23;;
12840;SDS011;6487;48.626;12.486;2023-02-28T14:53:26;17.13;;;13.10;;
12840;SDS011;6487;48.626;12.486;2023-02-28T14:55:57;12.60;;;10.70;;
12840;SDS011;6487;48.626;12.486;2023-02-28T14:58:27;13.33;;;11.60;;
12840;SDS011;6487;48.626;12.486;2023-02-28T15:00:58;13.70;;;11.67;;
12840;SDS011;6487;48.626;12.486;2023-02-28T15:03:31;13.10;;;11.07;;
12840;SDS011;6487;48.626;12.486;2023-02-28T15:06:02;12.70;;;10.70;;
12840;SDS011;6487;48.626;12.486;2023-02-28T15:08:33;11.53;;;10.33;;
12840;SDS011;6487;48.626;12.486;2023-02-28T15:11:03;12.77;;;11.00;;
12840;SDS011;6487;48.626;12.486;2023-02-28T15:13:36;12.90;;;11.10;;
12840;SDS011;6487;48.626;12.486;2023-02-28T15:16:09;11.83;;;10.37;;
12840;SDS011;6487;48.626;12.486;2023-02-28T15:18:44;11.77;;;10.53;;
12840;SDS011;6487;48.626;12.486;2023-02-28T15:21:17;11.90;;;10.47;;
12840;SDS011;6487;48.626;12.486;2023-02-28T15:23:49;13.33;;;10.57;;
12840;SDS011;6487;48.626;12.486;2023-02-28T15:26:22;12.90;;;9.80;;
12840;SDS011;6487;48.626;12.486;2023-02-28T15:28:57;12.63;;;10.60;;
12840;SDS011;6487;48.626;12.486;2023-02-28T15:31:28;12.63;;;10.77;;
12840;SDS011;6487;48.626;12.486;2023-02-28T15:34:23;13.87;;;10.80;;
12840;SDS011;6487;48.626;12.486;2023-02-28T15:39:56;13.53;;;10.33;;
12840;SDS011;6487;48.626;12.486;2023-02-28T15:42:31;12.37;;;10.93;;
12840;SDS011;6487;48.626;12.486;2023-02-28T15:45:00;14.33;;;11.03;;
12840;SDS011;6487;48.626;12.486;2023-02-28T15:47:29;12.53;;;11.03;;